sensor_id;sensor_type;location;lat;lon;timestamp;P1;durP1;ratioP1;P2;durP2;ratioP2
11054;SDS011;5580;50.106;8.702;2023-07-28T00:00:02;8.53;;;4.40;;
11054;SDS011;5580;50.106;8.702;2023-07-28T00:02:29;7.43;;;4.30;;
11054;SDS011;5580;50.106;8.702;2023-07-28T00:04:54;9.17;;;4.50;;
11054;SDS011;5580;50.106;8.702;2023-07-28T00:07:20;6.80;;;3.93;;
11054;SDS011;5580;50.106;8.702;2023-07-28T00:09:46;6.10;;;4.17;;
11054;SDS011;5580;50.106;8.702;2023-07-28T00:12:11;7.27;;;4.13;;
11054;SDS011;5580;50.106;8.702;2023-07-28T00:14:37;6.57;;;4.10;;
11054;SDS011;5580;50.106;8.702;2023-07-28T00:17:02;6.67;;;3.87;;
11054;SDS011;5580;50.106;8.702;2023-07-28T00:19:28;7.63;;;4.57;;
11054;SDS011;5580;50.106;8.702;2023-07-28T00:21:53;8.10;;;4.23;;
11054;SDS011;5580;50.106;8.702;2023-07-28T00:24:21;5.43;;;4.03;;
11054;SDS011;5580;50.106;8.702;2023-07-28T00:26:47;7.27;;;4.50;;
11054;SDS011;5580;50.106;8.702;2023-07-28T00:29:12;5.47;;;4.20;;
11054;SDS011;5580;50.106;8.702;2023-07-28T00:31:38;6.70;;;4.13;;
11054;SDS011;5580;50.106;8.702;2023-07-28T00:34:03;6.67;;;4.70;;
11054;SDS011;5580;50.106;8.702;2023-07-28T00:36:29;7.17;;;4.40;;
11054;SDS011;5580;50.106;8.702;2023-07-28T00:38:55;7.63;;;4.60;;
11054;SDS011;5580;50.106;8.702;2023-07-28T00:41:21;6.93;;;4.47;;
11054;SDS011;5580;50.106;8.702;2023-07-28T00:43:47;9.73;;;5.13;;
11054;SDS011;5580;50.106;8.702;2023-07-28T00:46:13;7.67;;;5.00;;
11054;SDS011;5580;50.106;8.702;2023-07-28T00:48:40;7.67;;;5.03;;
11054;SDS011;5580;50.106;8.702;2023-07-28T00:51:06;11.33;;;4.90;;
11054;SDS011;5580;50.106;8.702;2023-07-28T00:53:32;9.73;;;5.03;;
11054;SDS011;5580;50.106;8.702;2023-07-28T00:55:58;8.53;;;5.10;;
11054;SDS011;5580;50.106;8.702;2023-07-28T00:58:23;7.50;;;5.13;;
11054;SDS011;5580;50.106;8.702;2023-07-28T01:00:49;8.57;;;5.37;;
11054;SDS011;5580;50.106;8.702;2023-07-28T01:03:17;7.43;;;4.90;;
11054;SDS011;5580;50.106;8.702;2023-07-28T01:08:36;7.80;;;4.90;;
11054;SDS011;5580;50.106;8.702;2023-07-28T01:11:08;7.37;;;5.03;;
11054;SDS011;5580;50.106;8.702;2023-07-28T01:13:33;6.93;;;4.60;;
11054;SDS011;5580;50.106;8.702;2023-07-28T01:15:59;7.83;;;4.93;;
11054;SDS011;5580;50.106;8.702;2023-07-28T01:18:26;6.57;;;4.90;;
11054;SDS011;5580;50.106;8.702;2023-07-28T01:20:52;7.83;;;5.37;;
11054;SDS011;5580;50.106;8.702;2023-07-28T01:26:11;6.37;;;4.93;;
11054;SDS011;5580;50.106;8.702;2023-07-28T01:28:41;7.00;;;5.17;;
11054;SDS011;5580;50.106;8.702;2023-07-28T01:31:08;8.70;;;5.10;;
11054;SDS011;5580;50.106;8.702;2023-07-28T01:33:34;7.37;;;4.90;;
11054;SDS011;5580;50.106;8.702;2023-07-28T01:36:00;7.33;;;5.10;;
11054;SDS011;5580;50.106;8.702;2023-07-28T01:38:26;8.47;;;5.40;;
11054;SDS011;5580;50.106;8.702;2023-07-28T01:40:52;6.83;;;5.20;;
11054;SDS011;5580;50.106;8.702;2023-07-28T01:43:18;8.90;;;5.40;;
11054;SDS011;5580;50.106;8.702;2023-07-28T01:45:44;10.30;;;5.63;;
11054;SDS011;5580;50.106;8.702;2023-07-28T01:48:09;7.87;;;5.33;;
11054;SDS011;5580;50.106;8.702;2023-07-28T01:50:35;10.63;;;6.07;;
11054;SDS011;5580;50.106;8.702;2023-07-28T01:53:01;9.37;;;6.10;;
11054;SDS011;5580;50.106;8.702;2023-07-28T01:55:27;9.33;;;5.70;;
11054;SDS011;5580;50.106;8.702;2023-07-28T01:57:57;10.33;;;5.60;;
11054;SDS011;5580;50.106;8.702;2023-07-28T02:00:24;10.07;;;5.53;;
11054;SDS011;5580;50.106;8.702;2023-07-28T02:02:51;7.53;;;5.33;;
11054;SDS011;5580;50.106;8.702;2023-07-28T02:05:17;10.73;;;5.63;;
11054;SDS011;5580;50.106;8.702;2023-07-28T02:07:43;7.83;;;5.47;;
11054;SDS011;5580;50.106;8.702;2023-07-28T02:10:09;9.03;;;5.40;;
11054;SDS011;5580;50.106;8.702;2023-07-28T02:12:38;8.50;;;5.53;;
11054;SDS011;5580;50.106;8.702;2023-07-28T02:15:05;7.60;;;5.40;;
11054;SDS011;5580;50.106;8.702;2023-07-28T02:17:31;8.80;;;5.60;;
11054;SDS011;5580;50.106;8.702;2023-07-28T02:19:57;8.77;;;5.80;;
11054;SDS011;5580;50.106;8.702;2023-07-28T02:22:22;8.83;;;5.80;;
11054;SDS011;5580;50.106;8.702;2023-07-28T02:24:48;7.57;;;5.10;;
11054;SDS011;5580;50.106;8.702;2023-07-28T02:27:13;11.37;;;5.50;;
11054;SDS011;5580;50.106;8.702;2023-07-28T02:29:39;10.77;;;5.80;;
11054;SDS011;5580;50.106;8.702;2023-07-28T02:32:05;11.60;;;5.30;;
11054;SDS011;5580;50.106;8.702;2023-07-28T02:34:31;10.30;;;5.50;;
11054;SDS011;5580;50.106;8.702;2023-07-28T02:36:57;8.13;;;5.20;;
11054;SDS011;5580;50.106;8.702;2023-07-28T02:39:22;9.60;;;5.40;;
11054;SDS011;5580;50.106;8.702;2023-07-28T02:41:48;8.87;;;5.40;;
11054;SDS011;5580;50.106;8.702;2023-07-28T02:44:13;9.50;;;5.33;;
11054;SDS011;5580;50.106;8.702;2023-07-28T02:46:39;8.70;;;5.20;;
11054;SDS011;5580;50.106;8.702;2023-07-28T02:49:05;8.90;;;5.23;;
11054;SDS011;5580;50.106;8.702;2023-07-28T02:51:30;8.83;;;5.20;;
11054;SDS011;5580;50.106;8.702;2023-07-28T02:53:56;11.10;;;5.50;;
11054;SDS011;5580;50.106;8.702;2023-07-28T02:56:21;8.07;;;5.30;;
11054;SDS011;5580;50.106;8.702;2023-07-28T02:58:48;10.10;;;5.47;;
11054;SDS011;5580;50.106;8.702;2023-07-28T03:01:13;6.67;;;5.00;;
11054;SDS011;5580;50.106;8.702;2023-07-28T03:03:39;7.57;;;5.10;;
11054;SDS011;5580;50.106;8.702;2023-07-28T03:06:05;6.83;;;5.10;;
11054;SDS011;5580;50.106;8.702;2023-07-28T03:08:30;8.43;;;5.30;;
11054;SDS011;5580;50.106;8.702;2023-07-28T03:10:56;8.33;;;5.23;;
11054;SDS011;5580;50.106;8.702;2023-07-28T03:13:22;8.40;;;5.10;;
11054;SDS011;5580;50.106;8.702;2023-07-28T03:15:48;9.17;;;5.30;;
11054;SDS011;5580;50.106;8.702;2023-07-28T03:18:14;10.23;;;5.57;;
11054;SDS011;5580;50.106;8.702;2023-07-28T03:20:39;9.67;;;4.90;;
11054;SDS011;5580;50.106;8.702;2023-07-28T03:23:05;9.73;;;5.40;;
11054;SDS011;5580;50.106;8.702;2023-07-28T03:25:30;9.87;;;5.60;;
11054;SDS011;5580;50.106;8.702;2023-07-28T03:27:56;8.17;;;5.40;;
11054;SDS011;5580;50.106;8.702;2023-07-28T03:30:21;8.87;;;5.67;;
11054;SDS011;5580;50.106;8.702;2023-07-28T03:32:47;10.67;;;5.80;;
11054;SDS011;5580;50.106;8.702;2023-07-28T03:35:13;8.07;;;5.40;;
11054;SDS011;5580;50.106;8.702;2023-07-28T03:37:38;7.63;;;5.33;;
11054;SDS011;5580;50.106;8.702;2023-07-28T03:40:04;7.23;;;5.43;;
11054;SDS011;5580;50.106;8.702;2023-07-28T03:42:30;8.60;;;5.87;;
11054;SDS011;5580;50.106;8.702;2023-07-28T03:44:56;6.90;;;5.20;;
11054;SDS011;5580;50.106;8.702;2023-07-28T03:47:22;9.47;;;5.40;;
11054;SDS011;5580;50.106;8.702;2023-07-28T03:49:48;9.53;;;5.60;;
11054;SDS011;5580;50.106;8.702;2023-07-28T03:52:13;8.90;;;5.53;;
11054;SDS011;5580;50.106;8.702;2023-07-28T03:54:39;7.97;;;5.30;;
11054;SDS011;5580;50.106;8.702;2023-07-28T03:57:04;8.90;;;5.50;;
11054;SDS011;5580;50.106;8.702;2023-07-28T03:59:30;7.57;;;5.30;;
11054;SDS011;5580;50.106;8.702;2023-07-28T04:01:56;7.17;;;4.80;;
11054;SDS011;5580;50.106;8.702;2023-07-28T04:04:22;8.77;;;5.13;;
11054;SDS011;5580;50.106;8.702;2023-07-28T04:06:48;7.87;;;5.00;;
11054;SDS011;5580;50.106;8.702;2023-07-28T04:09:20;9.73;;;5.40;;
11054;SDS011;5580;50.106;8.702;2023-07-28T04:11:46;8.47;;;5.60;;
11054;SDS011;5580;50.106;8.702;2023-07-28T04:14:12;7.70;;;5.30;;
11054;SDS011;5580;50.106;8.702;2023-07-28T04:16:39;8.27;;;5.20;;
11054;SDS011;5580;50.106;8.702;2023-07-28T04:19:04;7.60;;;5.20;;
11054;SDS011;5580;50.106;8.702;2023-07-28T04:21:30;7.33;;;5.17;;
11054;SDS011;5580;50.106;8.702;2023-07-28T04:23:56;8.53;;;5.43;;
11054;SDS011;5580;50.106;8.702;2023-07-28T04:26:22;9.90;;;5.50;;
11054;SDS011;5580;50.106;8.702;2023-07-28T04:28:49;8.17;;;4.93;;
11054;SDS011;5580;50.106;8.702;2023-07-28T04:31:14;8.17;;;5.37;;
11054;SDS011;5580;50.106;8.702;2023-07-28T04:33:40;7.27;;;4.87;;
11054;SDS011;5580;50.106;8.702;2023-07-28T04:36:06;9.10;;;5.13;;
11054;SDS011;5580;50.106;8.702;2023-07-28T04:38:32;7.50;;;5.10;;
11054;SDS011;5580;50.106;8.702;2023-07-28T04:40:57;9.77;;;5.27;;
11054;SDS011;5580;50.106;8.702;2023-07-28T04:43:23;9.13;;;5.23;;
11054;SDS011;5580;50.106;8.702;2023-07-28T04:45:49;7.40;;;5.00;;
11054;SDS011;5580;50.106;8.702;2023-07-28T04:48:14;8.23;;;4.77;;
11054;SDS011;5580;50.106;8.702;2023-07-28T04:50:40;8.17;;;5.07;;
11054;SDS011;5580;50.106;8.702;2023-07-28T04:53:05;7.57;;;5.03;;
11054;SDS011;5580;50.106;8.702;2023-07-28T04:55:31;6.83;;;4.93;;
11054;SDS011;5580;50.106;8.702;2023-07-28T04:57:57;10.43;;;5.10;;
11054;SDS011;5580;50.106;8.702;2023-07-28T05:00:22;6.70;;;4.80;;
11054;SDS011;5580;50.106;8.702;2023-07-28T05:02:48;7.10;;;4.40;;
11054;SDS011;5580;50.106;8.702;2023-07-28T05:05:14;7.73;;;4.60;;
11054;SDS011;5580;50.106;8.702;2023-07-28T05:07:39;7.27;;;4.60;;
11054;SDS011;5580;50.106;8.702;2023-07-28T05:10:05;6.07;;;4.70;;
11054;SDS011;5580;50.106;8.702;2023-07-28T05:12:31;5.03;;;4.30;;
11054;SDS011;5580;50.106;8.702;2023-07-28T05:14:56;8.73;;;4.70;;
11054;SDS011;5580;50.106;8.702;2023-07-28T05:17:22;9.63;;;4.80;;
11054;SDS011;5580;50.106;8.702;2023-07-28T05:19:49;6.03;;;4.30;;
11054;SDS011;5580;50.106;8.702;2023-07-28T05:22:15;6.27;;;4.53;;
11054;SDS011;5580;50.106;8.702;2023-07-28T05:24:41;7.33;;;4.60;;
11054;SDS011;5580;50.106;8.702;2023-07-28T05:27:06;6.77;;;4.77;;
11054;SDS011;5580;50.106;8.702;2023-07-28T05:29:32;9.43;;;4.80;;
11054;SDS011;5580;50.106;8.702;2023-07-28T05:32:00;6.87;;;4.60;;
11054;SDS011;5580;50.106;8.702;2023-07-28T05:34:26;8.27;;;4.73;;
11054;SDS011;5580;50.106;8.702;2023-07-28T05:36:52;6.90;;;5.00;;
11054;SDS011;5580;50.106;8.702;2023-07-28T05:39:18;8.27;;;5.30;;
11054;SDS011;5580;50.106;8.702;2023-07-28T05:41:43;6.23;;;4.53;;
11054;SDS011;5580;50.106;8.702;2023-07-28T05:44:09;7.13;;;4.60;;
11054;SDS011;5580;50.106;8.702;2023-07-28T05:46:35;6.20;;;4.60;;
11054;SDS011;5580;50.106;8.702;2023-07-28T05:49:00;6.50;;;4.73;;
11054;SDS011;5580;50.106;8.702;2023-07-28T05:51:26;7.77;;;4.83;;
11054;SDS011;5580;50.106;8.702;2023-07-28T05:53:51;6.73;;;4.60;;
11054;SDS011;5580;50.106;8.702;2023-07-28T05:56:17;7.37;;;4.77;;
11054;SDS011;5580;50.106;8.702;2023-07-28T05:58:44;7.27;;;4.70;;
11054;SDS011;5580;50.106;8.702;2023-07-28T06:01:10;6.67;;;4.60;;
11054;SDS011;5580;50.106;8.702;2023-07-28T06:03:36;9.67;;;4.87;;
11054;SDS011;5580;50.106;8.702;2023-07-28T06:06:01;7.23;;;4.67;;
11054;SDS011;5580;50.106;8.702;2023-07-28T06:08:27;6.13;;;4.90;;
11054;SDS011;5580;50.106;8.702;2023-07-28T06:10:53;8.03;;;5.00;;
11054;SDS011;5580;50.106;8.702;2023-07-28T06:13:19;8.33;;;4.87;;
11054;SDS011;5580;50.106;8.702;2023-07-28T06:15:44;7.93;;;4.93;;
11054;SDS011;5580;50.106;8.702;2023-07-28T06:18:10;10.43;;;5.47;;
11054;SDS011;5580;50.106;8.702;2023-07-28T06:20:35;7.40;;;5.00;;
11054;SDS011;5580;50.106;8.702;2023-07-28T06:23:01;8.77;;;5.23;;
11054;SDS011;5580;50.106;8.702;2023-07-28T06:25:27;9.07;;;5.30;;
11054;SDS011;5580;50.106;8.702;2023-07-28T06:27:52;6.97;;;4.70;;
11054;SDS011;5580;50.106;8.702;2023-07-28T06:30:18;9.07;;;5.10;;
11054;SDS011;5580;50.106;8.702;2023-07-28T06:32:43;13.30;;;5.00;;
11054;SDS011;5580;50.106;8.702;2023-07-28T06:35:09;7.00;;;4.60;;
11054;SDS011;5580;50.106;8.702;2023-07-28T06:37:36;8.43;;;5.00;;
11054;SDS011;5580;50.106;8.702;2023-07-28T06:40:03;6.00;;;4.40;;
11054;SDS011;5580;50.106;8.702;2023-07-28T06:42:34;4.83;;;4.10;;
11054;SDS011;5580;50.106;8.702;2023-07-28T06:45:00;5.73;;;4.67;;
11054;SDS011;5580;50.106;8.702;2023-07-28T06:47:27;5.80;;;4.60;;
11054;SDS011;5580;50.106;8.702;2023-07-28T06:49:53;8.50;;;4.80;;
11054;SDS011;5580;50.106;8.702;2023-07-28T06:52:18;7.40;;;4.43;;
11054;SDS011;5580;50.106;8.702;2023-07-28T06:54:44;5.00;;;4.00;;
11054;SDS011;5580;50.106;8.702;2023-07-28T06:57:09;5.60;;;3.87;;
11054;SDS011;5580;50.106;8.702;2023-07-28T06:59:35;8.03;;;5.00;;
11054;SDS011;5580;50.106;8.702;2023-07-28T07:02:00;8.23;;;4.13;;
11054;SDS011;5580;50.106;8.702;2023-07-28T07:04:26;5.27;;;3.87;;
11054;SDS011;5580;50.106;8.702;2023-07-28T07:06:52;7.87;;;4.00;;
11054;SDS011;5580;50.106;8.702;2023-07-28T07:09:17;5.43;;;3.77;;
11054;SDS011;5580;50.106;8.702;2023-07-28T07:11:43;3.80;;;3.50;;
11054;SDS011;5580;50.106;8.702;2023-07-28T07:14:08;5.07;;;3.50;;
11054;SDS011;5580;50.106;8.702;2023-07-28T07:16:34;4.20;;;3.20;;
11054;SDS011;5580;50.106;8.702;2023-07-28T07:18:59;5.30;;;3.50;;
11054;SDS011;5580;50.106;8.702;2023-07-28T07:21:26;3.90;;;3.17;;
11054;SDS011;5580;50.106;8.702;2023-07-28T07:23:52;3.47;;;3.17;;
11054;SDS011;5580;50.106;8.702;2023-07-28T07:26:18;3.97;;;3.30;;
11054;SDS011;5580;50.106;8.702;2023-07-28T07:28:43;4.47;;;2.97;;
11054;SDS011;5580;50.106;8.702;2023-07-28T07:31:12;3.20;;;2.90;;
11054;SDS011;5580;50.106;8.702;2023-07-28T07:33:38;3.33;;;3.03;;
11054;SDS011;5580;50.106;8.702;2023-07-28T07:36:04;3.73;;;3.20;;
11054;SDS011;5580;50.106;8.702;2023-07-28T07:38:30;3.60;;;2.37;;
11054;SDS011;5580;50.106;8.702;2023-07-28T07:40:55;3.10;;;2.80;;
11054;SDS011;5580;50.106;8.702;2023-07-28T07:43:21;3.30;;;3.00;;
11054;SDS011;5580;50.106;8.702;2023-07-28T07:45:47;3.43;;;3.13;;
11054;SDS011;5580;50.106;8.702;2023-07-28T07:48:15;2.63;;;2.33;;
11054;SDS011;5580;50.106;8.702;2023-07-28T07:50:40;4.33;;;2.90;;
11054;SDS011;5580;50.106;8.702;2023-07-28T07:53:06;2.70;;;2.50;;
11054;SDS011;5580;50.106;8.702;2023-07-28T07:55:31;5.63;;;2.60;;
11054;SDS011;5580;50.106;8.702;2023-07-28T07:57:57;2.77;;;2.57;;
11054;SDS011;5580;50.106;8.702;2023-07-28T08:00:23;2.97;;;2.73;;
11054;SDS011;5580;50.106;8.702;2023-07-28T08:02:51;3.93;;;2.80;;
11054;SDS011;5580;50.106;8.702;2023-07-28T08:05:16;2.90;;;2.70;;
11054;SDS011;5580;50.106;8.702;2023-07-28T08:07:42;3.03;;;2.83;;
11054;SDS011;5580;50.106;8.702;2023-07-28T08:10:09;4.20;;;2.70;;
11054;SDS011;5580;50.106;8.702;2023-07-28T08:12:34;3.03;;;2.70;;
11054;SDS011;5580;50.106;8.702;2023-07-28T08:15:00;2.40;;;2.20;;
11054;SDS011;5580;50.106;8.702;2023-07-28T08:17:26;4.63;;;2.67;;
11054;SDS011;5580;50.106;8.702;2023-07-28T08:19:51;3.40;;;2.40;;
11054;SDS011;5580;50.106;8.702;2023-07-28T08:22:17;2.87;;;2.53;;
11054;SDS011;5580;50.106;8.702;2023-07-28T08:24:43;2.80;;;2.50;;
11054;SDS011;5580;50.106;8.702;2023-07-28T08:27:08;3.47;;;2.83;;
11054;SDS011;5580;50.106;8.702;2023-07-28T08:29:34;2.37;;;2.17;;
11054;SDS011;5580;50.106;8.702;2023-07-28T08:32:00;2.40;;;2.23;;
11054;SDS011;5580;50.106;8.702;2023-07-28T08:34:27;3.03;;;2.30;;
11054;SDS011;5580;50.106;8.702;2023-07-28T08:36:52;2.77;;;2.33;;
11054;SDS011;5580;50.106;8.702;2023-07-28T08:39:18;3.53;;;2.60;;
11054;SDS011;5580;50.106;8.702;2023-07-28T08:41:43;2.43;;;1.80;;
11054;SDS011;5580;50.106;8.702;2023-07-28T08:44:09;2.80;;;2.43;;
11054;SDS011;5580;50.106;8.702;2023-07-28T08:46:35;3.03;;;2.03;;
11054;SDS011;5580;50.106;8.702;2023-07-28T08:49:01;2.10;;;2.00;;
11054;SDS011;5580;50.106;8.702;2023-07-28T08:51:27;4.53;;;2.23;;
11054;SDS011;5580;50.106;8.702;2023-07-28T08:53:52;6.87;;;2.30;;
11054;SDS011;5580;50.106;8.702;2023-07-28T08:56:18;2.17;;;1.83;;
11054;SDS011;5580;50.106;8.702;2023-07-28T08:58:45;2.30;;;2.10;;
11054;SDS011;5580;50.106;8.702;2023-07-28T09:01:11;1.93;;;1.83;;
11054;SDS011;5580;50.106;8.702;2023-07-28T09:03:40;3.13;;;2.03;;
11054;SDS011;5580;50.106;8.702;2023-07-28T09:06:06;1.70;;;1.60;;
11054;SDS011;5580;50.106;8.702;2023-07-28T09:08:35;2.87;;;1.40;;
11054;SDS011;5580;50.106;8.702;2023-07-28T09:11:02;2.17;;;2.07;;
11054;SDS011;5580;50.106;8.702;2023-07-28T09:13:39;3.60;;;2.20;;
11054;SDS011;5580;50.106;8.702;2023-07-28T09:16:18;2.03;;;1.90;;
11054;SDS011;5580;50.106;8.702;2023-07-28T09:18:44;2.30;;;2.00;;
11054;SDS011;5580;50.106;8.702;2023-07-28T09:21:19;2.47;;;2.27;;
11054;SDS011;5580;50.106;8.702;2023-07-28T09:23:48;2.93;;;2.17;;
11054;SDS011;5580;50.106;8.702;2023-07-28T09:26:15;1.87;;;1.77;;
11054;SDS011;5580;50.106;8.702;2023-07-28T09:28:41;3.00;;;1.87;;
11054;SDS011;5580;50.106;8.702;2023-07-28T09:31:07;2.73;;;1.80;;
11054;SDS011;5580;50.106;8.702;2023-07-28T09:33:35;3.67;;;1.87;;
11054;SDS011;5580;50.106;8.702;2023-07-28T09:36:11;1.60;;;1.50;;
11054;SDS011;5580;50.106;8.702;2023-07-28T09:38:39;1.67;;;1.57;;
11054;SDS011;5580;50.106;8.702;2023-07-28T09:41:06;3.03;;;2.30;;
11054;SDS011;5580;50.106;8.702;2023-07-28T09:43:35;2.17;;;1.97;;
11054;SDS011;5580;50.106;8.702;2023-07-28T09:46:03;3.83;;;2.37;;
11054;SDS011;5580;50.106;8.702;2023-07-28T09:48:31;2.70;;;2.00;;
11054;SDS011;5580;50.106;8.702;2023-07-28T09:50:59;1.80;;;1.70;;
11054;SDS011;5580;50.106;8.702;2023-07-28T09:53:32;2.17;;;2.00;;
11054;SDS011;5580;50.106;8.702;2023-07-28T09:56:03;1.93;;;1.80;;
11054;SDS011;5580;50.106;8.702;2023-07-28T09:58:29;3.80;;;2.13;;
11054;SDS011;5580;50.106;8.702;2023-07-28T10:01:02;2.63;;;1.90;;
11054;SDS011;5580;50.106;8.702;2023-07-28T10:03:31;2.23;;;1.97;;
11054;SDS011;5580;50.106;8.702;2023-07-28T10:05:57;2.27;;;1.90;;
11054;SDS011;5580;50.106;8.702;2023-07-28T10:08:24;2.47;;;2.27;;
11054;SDS011;5580;50.106;8.702;2023-07-28T10:10:50;1.63;;;1.50;;
11054;SDS011;5580;50.106;8.702;2023-07-28T10:13:21;1.60;;;1.50;;
11054;SDS011;5580;50.106;8.702;2023-07-28T10:15:47;3.57;;;1.67;;
11054;SDS011;5580;50.106;8.702;2023-07-28T10:18:13;1.80;;;1.70;;
11054;SDS011;5580;50.106;8.702;2023-07-28T10:20:40;2.13;;;1.93;;
11054;SDS011;5580;50.106;8.702;2023-07-28T10:25:37;2.30;;;2.10;;
11054;SDS011;5580;50.106;8.702;2023-07-28T10:28:04;1.93;;;1.83;;
11054;SDS011;5580;50.106;8.702;2023-07-28T10:30:50;2.63;;;2.27;;
11054;SDS011;5580;50.106;8.702;2023-07-28T10:35:55;2.27;;;2.07;;
11054;SDS011;5580;50.106;8.702;2023-07-28T10:38:36;2.33;;;2.13;;
11054;SDS011;5580;50.106;8.702;2023-07-28T10:41:10;1.90;;;1.80;;
11054;SDS011;5580;50.106;8.702;2023-07-28T10:43:35;2.17;;;2.00;;
11054;SDS011;5580;50.106;8.702;2023-07-28T10:46:01;2.13;;;1.97;;
11054;SDS011;5580;50.106;8.702;2023-07-28T10:48:28;2.57;;;1.70;;
11054;SDS011;5580;50.106;8.702;2023-07-28T10:50:54;3.40;;;1.83;;
11054;SDS011;5580;50.106;8.702;2023-07-28T10:53:20;5.07;;;2.40;;
11054;SDS011;5580;50.106;8.702;2023-07-28T10:55:46;2.20;;;2.10;;
11054;SDS011;5580;50.106;8.702;2023-07-28T10:58:12;5.47;;;2.10;;
11054;SDS011;5580;50.106;8.702;2023-07-28T11:00:37;3.80;;;1.87;;
11054;SDS011;5580;50.106;8.702;2023-07-28T11:03:03;2.23;;;2.03;;
11054;SDS011;5580;50.106;8.702;2023-07-28T11:05:29;3.17;;;2.10;;
11054;SDS011;5580;50.106;8.702;2023-07-28T11:07:59;3.33;;;1.83;;
11054;SDS011;5580;50.106;8.702;2023-07-28T11:10:27;3.37;;;2.27;;
11054;SDS011;5580;50.106;8.702;2023-07-28T11:12:56;2.10;;;1.87;;
11054;SDS011;5580;50.106;8.702;2023-07-28T11:15:26;2.57;;;2.10;;
11054;SDS011;5580;50.106;8.702;2023-07-28T11:17:52;2.10;;;1.80;;
11054;SDS011;5580;50.106;8.702;2023-07-28T11:20:22;2.30;;;2.17;;
11054;SDS011;5580;50.106;8.702;2023-07-28T11:22:59;3.10;;;2.30;;
11054;SDS011;5580;50.106;8.702;2023-07-28T11:25:27;4.70;;;2.43;;
11054;SDS011;5580;50.106;8.702;2023-07-28T11:27:53;4.93;;;2.20;;
11054;SDS011;5580;50.106;8.702;2023-07-28T11:30:23;1.87;;;1.77;;
11054;SDS011;5580;50.106;8.702;2023-07-28T11:32:52;3.83;;;2.70;;
11054;SDS011;5580;50.106;8.702;2023-07-28T11:35:19;4.43;;;3.30;;
11054;SDS011;5580;50.106;8.702;2023-07-28T11:37:47;5.87;;;3.97;;
11054;SDS011;5580;50.106;8.702;2023-07-28T11:40:16;2.83;;;2.63;;
11054;SDS011;5580;50.106;8.702;2023-07-28T11:42:47;4.63;;;2.30;;
11054;SDS011;5580;50.106;8.702;2023-07-28T11:45:15;2.30;;;2.20;;
11054;SDS011;5580;50.106;8.702;2023-07-28T11:50:27;2.90;;;2.70;;
11054;SDS011;5580;50.106;8.702;2023-07-28T11:52:54;2.80;;;2.60;;
11054;SDS011;5580;50.106;8.702;2023-07-28T11:55:21;3.20;;;2.53;;
11054;SDS011;5580;50.106;8.702;2023-07-28T11:57:48;4.73;;;3.00;;
11054;SDS011;5580;50.106;8.702;2023-07-28T12:00:14;3.10;;;2.80;;
11054;SDS011;5580;50.106;8.702;2023-07-28T12:02:43;2.80;;;2.60;;
11054;SDS011;5580;50.106;8.702;2023-07-28T12:05:13;3.40;;;3.10;;
11054;SDS011;5580;50.106;8.702;2023-07-28T12:07:39;3.33;;;3.03;;
11054;SDS011;5580;50.106;8.702;2023-07-28T12:10:05;5.70;;;3.40;;
11054;SDS011;5580;50.106;8.702;2023-07-28T12:12:46;5.80;;;3.07;;
11054;SDS011;5580;50.106;8.702;2023-07-28T12:15:19;3.73;;;3.40;;
11054;SDS011;5580;50.106;8.702;2023-07-28T12:23:06;5.17;;;4.30;;
11054;SDS011;5580;50.106;8.702;2023-07-28T12:25:33;4.47;;;4.07;;
11054;SDS011;5580;50.106;8.702;2023-07-28T12:28:01;4.67;;;4.10;;
11054;SDS011;5580;50.106;8.702;2023-07-28T12:30:27;6.10;;;4.30;;
11054;SDS011;5580;50.106;8.702;2023-07-28T12:32:54;8.37;;;4.53;;
11054;SDS011;5580;50.106;8.702;2023-07-28T12:35:20;7.17;;;4.87;;
11054;SDS011;5580;50.106;8.702;2023-07-28T12:37:48;7.67;;;4.83;;
11054;SDS011;5580;50.106;8.702;2023-07-28T12:40:15;7.33;;;4.60;;
11054;SDS011;5580;50.106;8.702;2023-07-28T12:42:40;5.77;;;4.50;;
11054;SDS011;5580;50.106;8.702;2023-07-28T12:45:06;9.87;;;5.10;;
11054;SDS011;5580;50.106;8.702;2023-07-28T12:47:33;7.27;;;4.93;;
11054;SDS011;5580;50.106;8.702;2023-07-28T12:49:58;6.10;;;4.87;;
11054;SDS011;5580;50.106;8.702;2023-07-28T12:52:24;5.47;;;4.60;;
11054;SDS011;5580;50.106;8.702;2023-07-28T12:54:49;4.73;;;4.27;;
11054;SDS011;5580;50.106;8.702;2023-07-28T12:57:15;6.10;;;4.57;;
11054;SDS011;5580;50.106;8.702;2023-07-28T12:59:41;6.47;;;4.40;;
11054;SDS011;5580;50.106;8.702;2023-07-28T13:02:06;7.50;;;4.40;;
11054;SDS011;5580;50.106;8.702;2023-07-28T13:04:32;5.77;;;4.47;;
11054;SDS011;5580;50.106;8.702;2023-07-28T13:06:57;5.10;;;4.40;;
11054;SDS011;5580;50.106;8.702;2023-07-28T13:09:23;7.23;;;4.50;;
11054;SDS011;5580;50.106;8.702;2023-07-28T13:11:49;5.30;;;4.53;;
11054;SDS011;5580;50.106;8.702;2023-07-28T13:14:14;5.27;;;4.47;;
11054;SDS011;5580;50.106;8.702;2023-07-28T13:16:40;6.90;;;4.40;;
11054;SDS011;5580;50.106;8.702;2023-07-28T13:19:05;5.30;;;4.47;;
11054;SDS011;5580;50.106;8.702;2023-07-28T13:21:31;6.80;;;4.60;;
11054;SDS011;5580;50.106;8.702;2023-07-28T13:23:58;5.50;;;4.50;;
11054;SDS011;5580;50.106;8.702;2023-07-28T13:26:24;9.73;;;4.90;;
11054;SDS011;5580;50.106;8.702;2023-07-28T13:28:50;4.97;;;4.17;;
11054;SDS011;5580;50.106;8.702;2023-07-28T13:31:16;5.60;;;4.40;;
11054;SDS011;5580;50.106;8.702;2023-07-28T13:33:42;5.30;;;4.17;;
11054;SDS011;5580;50.106;8.702;2023-07-28T13:36:08;5.87;;;4.30;;
11054;SDS011;5580;50.106;8.702;2023-07-28T13:38:34;5.40;;;4.03;;
11054;SDS011;5580;50.106;8.702;2023-07-28T13:40:59;7.83;;;4.07;;
11054;SDS011;5580;50.106;8.702;2023-07-28T13:43:25;4.97;;;3.73;;
11054;SDS011;5580;50.106;8.702;2023-07-28T13:45:51;7.23;;;4.70;;
11054;SDS011;5580;50.106;8.702;2023-07-28T13:48:16;4.43;;;3.97;;
11054;SDS011;5580;50.106;8.702;2023-07-28T13:50:42;6.00;;;4.47;;
11054;SDS011;5580;50.106;8.702;2023-07-28T13:53:08;6.47;;;4.10;;
11054;SDS011;5580;50.106;8.702;2023-07-28T13:55:35;7.43;;;4.20;;
11054;SDS011;5580;50.106;8.702;2023-07-28T13:58:00;4.93;;;4.03;;
11054;SDS011;5580;50.106;8.702;2023-07-28T14:00:26;5.00;;;3.90;;
11054;SDS011;5580;50.106;8.702;2023-07-28T14:02:51;5.57;;;4.13;;
11054;SDS011;5580;50.106;8.702;2023-07-28T14:05:17;5.43;;;4.10;;
11054;SDS011;5580;50.106;8.702;2023-07-28T14:07:44;5.53;;;4.00;;
11054;SDS011;5580;50.106;8.702;2023-07-28T14:10:10;5.47;;;3.90;;
11054;SDS011;5580;50.106;8.702;2023-07-28T14:12:36;4.10;;;3.70;;
11054;SDS011;5580;50.106;8.702;2023-07-28T14:15:02;4.53;;;3.70;;
11054;SDS011;5580;50.106;8.702;2023-07-28T14:17:28;4.30;;;3.90;;
11054;SDS011;5580;50.106;8.702;2023-07-28T14:19:54;4.17;;;3.77;;
11054;SDS011;5580;50.106;8.702;2023-07-28T14:22:19;5.20;;;3.80;;
11054;SDS011;5580;50.106;8.702;2023-07-28T14:24:45;4.93;;;3.80;;
11054;SDS011;5580;50.106;8.702;2023-07-28T14:27:11;4.37;;;3.97;;
11054;SDS011;5580;50.106;8.702;2023-07-28T14:29:36;4.27;;;3.73;;
11054;SDS011;5580;50.106;8.702;2023-07-28T14:32:02;4.10;;;3.70;;
11054;SDS011;5580;50.106;8.702;2023-07-28T14:34:27;7.50;;;4.10;;
11054;SDS011;5580;50.106;8.702;2023-07-28T14:36:53;6.37;;;3.93;;
11054;SDS011;5580;50.106;8.702;2023-07-28T14:39:18;4.63;;;3.73;;
11054;SDS011;5580;50.106;8.702;2023-07-28T14:41:44;4.47;;;3.83;;
11054;SDS011;5580;50.106;8.702;2023-07-28T14:44:10;4.43;;;4.00;;
11054;SDS011;5580;50.106;8.702;2023-07-28T14:46:35;7.83;;;4.07;;
11054;SDS011;5580;50.106;8.702;2023-07-28T14:49:01;5.07;;;4.00;;
11054;SDS011;5580;50.106;8.702;2023-07-28T14:51:27;6.30;;;4.50;;
11054;SDS011;5580;50.106;8.702;2023-07-28T14:53:53;8.77;;;4.57;;
11054;SDS011;5580;50.106;8.702;2023-07-28T14:56:20;6.43;;;4.27;;
11054;SDS011;5580;50.106;8.702;2023-07-28T14:58:49;5.40;;;4.40;;
11054;SDS011;5580;50.106;8.702;2023-07-28T15:01:16;8.80;;;4.47;;
11054;SDS011;5580;50.106;8.702;2023-07-28T15:03:42;8.67;;;4.87;;
11054;SDS011;5580;50.106;8.702;2023-07-28T15:06:07;8.47;;;4.80;;
11054;SDS011;5580;50.106;8.702;2023-07-28T15:08:33;8.47;;;4.80;;
11054;SDS011;5580;50.106;8.702;2023-07-28T15:10:59;6.83;;;4.63;;
11054;SDS011;5580;50.106;8.702;2023-07-28T15:13:24;6.93;;;4.87;;